CheckWX is a tool to help pilots better visualize weather data.  It is not intended as a substitute for an official pre-flight weather briefing.

01:41:40 UTC

PTSA METAR
Kosrae Airport
Kosrae, Federated States of Micronesia
Current

52 mins ago

PTSA 190050Z 32009KT 10SM SCT020 BKN130 OVC300 31/25 A2981
Observed
Aug-19 @ 00:50 UTC
Wind
  • 320° at 9 KTS
Visibility
16,100 meters
Flight Rules
VFR
Cloud Levels
  • Scattered at 2,000' AGL
  • Broken at 13,000' AGL
  • Overcast at 30,000' AGL
Temperature
31°C / 88°F
Dewpoint
25°C / 77°F
Heat Index
38°C / 100°F
Humidity
70%
Altimeter
29.81" Hg
Pressure
1009.52 hPa
Previous

2 hours ago

PTSA 182350Z 31008KT 10SM SCT020 BKN130 OVC300 31/25 A2982
Observed
Aug-18 @ 23:50 UTC
Wind
  • 310° at 8 KTS
Visibility
16,100 meters
Flight Rules
VFR
Cloud Levels
  • Scattered at 2,000' AGL
  • Broken at 13,000' AGL
  • Overcast at 30,000' AGL
Temperature
31°C / 88°F
Dewpoint
25°C / 77°F
Heat Index
38°C / 100°F
Humidity
70%
Altimeter
29.82" Hg
Pressure
1009.82 hPa
Previous

3 hours ago

PTSA 182250Z 29009KT 10SM SCT019TCU BKN130 OVC300 31/25 A2982 RMK TCU NE
Observed
Aug-18 @ 22:50 UTC
Wind
  • 290° at 9 KTS
Visibility
16,100 meters
Flight Rules
VFR
Cloud Levels
  • Scattered at 1,900' AGL
  • Broken at 13,000' AGL
  • Overcast at 30,000' AGL
Temperature
31°C / 88°F
Dewpoint
25°C / 77°F
Heat Index
38°C / 100°F
Humidity
70%
Altimeter
29.82" Hg
Pressure
1009.82 hPa